createdAt,value
2016-04-28T00:00:01.494Z,0
2016-04-28T00:01:01.450Z,0
2016-04-28T00:02:01.436Z,0
2016-04-28T00:03:01.376Z,0
2016-04-28T00:04:01.380Z,0
2016-04-28T00:05:01.320Z,0
2016-04-28T00:06:01.291Z,0
2016-04-28T00:07:01.277Z,0
2016-04-28T00:08:01.250Z,0
2016-04-28T00:09:01.221Z,0
2016-04-28T00:10:01.176Z,0
2016-04-28T00:11:01.023Z,0
2016-04-28T00:12:01.135Z,0
2016-04-28T00:13:01.107Z,0
2016-04-28T00:14:01.063Z,0
2016-04-28T00:15:01.018Z,0
2016-04-28T00:16:00.989Z,0
2016-04-28T00:17:00.962Z,0
2016-04-28T00:18:00.948Z,0
2016-04-28T00:19:00.904Z,0
2016-04-28T00:20:07.125Z,0
2016-04-28T00:21:00.862Z,0
2016-04-28T00:22:00.662Z,0
2016-04-28T00:23:00.790Z,0
2016-04-28T00:24:00.761Z,0
2016-04-28T00:25:00.733Z,0
2016-04-28T00:26:00.423Z,0
2016-04-28T00:27:02.629Z,0
2016-04-28T00:28:00.631Z,0
2016-04-28T00:29:00.602Z,0
2016-04-28T00:30:00.622Z,0
2016-04-28T00:31:00.546Z,0
2016-04-28T00:32:00.517Z,0
2016-04-28T00:33:00.488Z,0
2016-04-28T00:34:00.460Z,0
2016-04-28T00:35:00.291Z,0
2016-04-28T00:36:00.402Z,0
2016-04-28T00:37:00.374Z,0
2016-04-28T00:38:00.330Z,0
2016-04-28T00:39:00.146Z,0
2016-04-28T00:40:00.273Z,0
2016-04-28T00:40:59.776Z,0
2016-04-28T00:42:01.950Z,0
2016-04-28T00:43:00.188Z,0
2016-04-28T00:44:00.143Z,0
2016-04-28T00:45:00.130Z,0
2016-04-28T00:46:00.070Z,0
2016-04-28T00:47:00.042Z,0
2016-04-28T00:48:00.045Z,0
2016-04-28T00:49:00.000Z,0
2016-04-28T00:49:59.956Z,0
2016-04-28T00:50:59.928Z,0
2016-04-28T00:51:59.899Z,0
2016-04-28T00:52:59.870Z,0
2016-04-28T00:53:59.858Z,0
2016-04-28T00:54:59.814Z,0
2016-04-28T00:56:00.597Z,0
2016-04-28T00:57:00.272Z,0
2016-04-28T00:57:59.712Z,0
2016-04-28T00:58:59.683Z,0
2016-04-28T00:59:59.670Z,0
2016-04-28T01:00:59.627Z,0
2016-04-28T01:01:59.597Z,0
2016-04-28T01:02:59.569Z,0
2016-04-28T01:03:59.541Z,0
2016-04-28T01:04:59.513Z,0
2016-04-28T01:05:59.468Z,0
2016-04-28T01:06:59.439Z,0
2016-04-28T01:07:59.535Z,0
2016-04-28T01:08:59.382Z,0
2016-04-28T01:09:59.338Z,0
2016-04-28T01:10:59.403Z,0
2016-04-28T01:11:59.656Z,0
2016-04-28T01:12:59.268Z,0
2016-04-28T01:13:59.224Z,0
2016-04-28T01:14:59.195Z,0
2016-04-28T01:15:59.167Z,0
2016-04-28T01:16:59.154Z,0
2016-04-28T01:17:59.110Z,0
2016-04-28T01:18:59.081Z,0
2016-04-28T01:19:59.021Z,0
2016-04-28T01:20:59.039Z,0
2016-04-28T01:21:59.011Z,0
2016-04-28T01:22:58.967Z,0
2016-04-28T01:23:58.906Z,0
2016-04-28T01:24:58.909Z,0
2016-04-28T01:25:59.912Z,0
2016-04-28T01:27:00.603Z,0
2016-04-28T01:27:58.792Z,0
2016-04-28T01:28:58.764Z,0
2016-04-28T01:29:58.767Z,0
2016-04-28T01:30:58.708Z,0
2016-04-28T01:31:58.678Z,0
2016-04-28T01:32:58.493Z,0
2016-04-28T01:33:58.621Z,0
2016-04-28T01:34:58.593Z,0
2016-04-28T01:35:58.580Z,0
2016-04-28T01:36:58.519Z,0
2016-04-28T01:37:58.492Z,0
2016-04-28T01:38:58.463Z,0
2016-04-28T01:39:58.450Z,0
2016-04-28T01:40:58.234Z,0
2016-04-28T01:41:58.940Z,0
2016-04-28T01:42:58.365Z,0
2016-04-28T01:43:58.321Z,0
2016-04-28T01:44:58.291Z,0
2016-04-28T01:45:58.247Z,0
2016-04-28T01:46:58.235Z,0
2016-04-28T01:47:58.206Z,0
2016-04-28T01:48:58.162Z,0
2016-04-28T01:49:58.133Z,0
2016-04-28T01:50:58.090Z,0
2016-04-28T01:51:58.060Z,0
2016-04-28T01:52:58.062Z,0
2016-04-28T01:53:58.004Z,0
2016-04-28T01:54:57.990Z,0
2016-04-28T01:55:58.337Z,0
2016-04-28T01:56:58.808Z,0
2016-04-28T01:57:57.889Z,0
2016-04-28T01:58:57.860Z,0
2016-04-28T01:59:57.832Z,0
2016-04-28T02:00:57.788Z,0
2016-04-28T02:01:57.758Z,0
2016-04-28T02:02:57.715Z,0
2016-04-28T02:03:57.702Z,0
2016-04-28T02:04:57.689Z,0
2016-04-28T02:05:57.660Z,0
2016-04-28T02:06:57.600Z,0
2016-04-28T02:07:57.588Z,0
2016-04-28T02:08:57.560Z,0
2016-04-28T02:09:57.530Z,0
2016-04-28T02:10:59.768Z,0
2016-04-28T02:11:57.693Z,0
2016-04-28T02:12:57.288Z,0
2016-04-28T02:13:57.401Z,0
2016-04-28T02:14:57.371Z,0
2016-04-28T02:15:57.344Z,0
2016-04-28T02:16:57.331Z,0
2016-04-28T02:17:57.287Z,0
2016-04-28T02:18:57.258Z,0
2016-04-28T02:19:57.229Z,0
2016-04-28T02:20:57.201Z,0
2016-04-28T02:21:57.156Z,0
2016-04-28T02:22:57.134Z,0
2016-04-28T02:23:57.105Z,0
2016-04-28T02:24:57.093Z,0
2016-04-28T02:25:57.048Z,0
2016-04-28T02:26:58.379Z,0
2016-04-28T02:27:56.975Z,0
2016-04-28T02:28:56.948Z,0
2016-04-28T02:29:56.918Z,0
2016-04-28T02:30:56.906Z,0
2016-04-28T02:31:56.861Z,0
2016-04-28T02:32:56.833Z,0
2016-04-28T02:33:56.789Z,0
2016-04-28T02:34:56.775Z,0
2016-04-28T02:35:56.763Z,0
2016-04-28T02:36:56.703Z,0
2016-04-28T02:37:56.675Z,0
2016-04-28T02:38:56.677Z,0
2016-04-28T02:39:56.616Z,0
2016-04-28T02:40:56.089Z,0
2016-04-28T02:41:56.561Z,0
2016-04-28T02:42:56.531Z,0
2016-04-28T02:43:56.502Z,0
2016-04-28T02:44:56.506Z,0
2016-04-28T02:45:56.430Z,0
2016-04-28T02:46:56.402Z,0
2016-04-28T02:47:56.404Z,0
2016-04-28T02:48:56.345Z,0
2016-04-28T02:49:56.550Z,0
2016-04-28T02:50:56.287Z,0
2016-04-28T02:51:56.259Z,0
2016-04-28T02:52:56.229Z,0
2016-04-28T02:53:56.186Z,0
2016-04-28T02:54:56.157Z,0
2016-04-28T02:55:57.066Z,0
2016-04-28T02:56:56.898Z,0
2016-04-28T02:57:56.071Z,0
2016-04-28T02:58:56.043Z,0
2016-04-28T02:59:56.014Z,0
2016-04-28T03:00:55.971Z,0
2016-04-28T03:01:55.957Z,0
2016-04-28T03:02:55.929Z,0
2016-04-28T03:03:55.884Z,0
2016-04-28T03:04:55.872Z,0
2016-04-28T03:05:55.843Z,0
2016-04-28T03:06:55.814Z,0
2016-04-28T03:07:55.770Z,0
2016-04-28T03:08:55.758Z,0
2016-04-28T03:09:55.714Z,0
2016-04-28T03:10:56.341Z,0
2016-04-28T03:11:56.266Z,0
2016-04-28T03:12:55.612Z,0
2016-04-28T03:13:55.583Z,0
2016-04-28T03:14:55.555Z,0
2016-04-28T03:15:55.527Z,0
2016-04-28T03:16:55.497Z,0
2016-04-28T03:17:55.469Z,0
2016-04-28T03:18:55.425Z,0
2016-04-28T03:19:55.412Z,0
2016-04-28T03:20:55.383Z,0
2016-04-28T03:21:55.355Z,0
2016-04-28T03:22:55.311Z,0
2016-04-28T03:23:55.282Z,0
2016-04-28T03:24:55.254Z,0
2016-04-28T03:25:55.835Z,0
2016-04-28T03:26:56.353Z,0
2016-04-28T03:27:55.168Z,0
2016-04-28T03:28:55.139Z,0
2016-04-28T03:29:55.096Z,0
2016-04-28T03:30:55.098Z,0
2016-04-28T03:31:55.038Z,0
2016-04-28T03:32:55.009Z,0
2016-04-28T03:33:54.965Z,0
2016-04-28T03:34:54.953Z,0
2016-04-28T03:35:54.923Z,0
2016-04-28T03:36:54.880Z,0
2016-04-28T03:37:54.867Z,0
2016-04-28T03:38:54.839Z,0
2016-04-28T03:39:54.794Z,0
2016-04-28T03:40:54.765Z,0
2016-04-28T03:41:54.597Z,0
2016-04-28T03:42:54.692Z,0
2016-04-28T03:43:54.680Z,0
2016-04-28T03:44:54.635Z,0
2016-04-28T03:45:54.639Z,0
2016-04-28T03:46:54.578Z,0
2016-04-28T03:47:54.549Z,0
2016-04-28T03:48:54.506Z,0
2016-04-28T03:49:54.493Z,0
2016-04-28T03:50:54.464Z,0
2016-04-28T03:51:54.435Z,0
2016-04-28T03:52:54.391Z,0
2016-04-28T03:53:54.363Z,0
2016-04-28T03:54:54.334Z,0
2016-04-28T03:55:54.306Z,0
2016-04-28T03:56:56.199Z,0
2016-04-28T03:57:54.233Z,0
2016-04-28T03:58:54.220Z,0
2016-04-28T03:59:54.176Z,5
2016-04-28T04:00:54.132Z,5
2016-04-28T04:01:54.135Z,5
2016-04-28T04:02:54.090Z,5
2016-04-28T04:03:54.046Z,5
2016-04-28T04:04:54.018Z,5
2016-04-28T04:05:53.833Z,5
2016-04-28T04:06:53.961Z,5
2016-04-28T04:07:53.931Z,10
2016-04-28T04:08:53.919Z,10
2016-04-28T04:09:53.859Z,10
2016-04-28T04:10:53.831Z,10
2016-04-28T04:11:53.770Z,10
2016-04-28T04:12:53.773Z,10
2016-04-28T04:13:53.761Z,15
2016-04-28T04:14:53.716Z,15
2016-04-28T04:15:53.703Z,15
2016-04-28T04:16:53.659Z,15
2016-04-28T04:17:53.491Z,20
2016-04-28T04:18:53.586Z,20
2016-04-28T04:19:53.557Z,20
2016-04-28T04:20:53.530Z,20
2016-04-28T04:21:53.516Z,20
2016-04-28T04:22:53.472Z,25
2016-04-28T04:23:53.427Z,25
2016-04-28T04:24:53.416Z,25
2016-04-28T04:25:53.387Z,25
2016-04-28T04:26:53.358Z,25
2016-04-28T04:27:53.313Z,30
2016-04-28T04:28:53.285Z,30
2016-04-28T04:29:53.273Z,30
2016-04-28T04:30:53.259Z,30
2016-04-28T04:31:53.199Z,30
2016-04-28T04:32:53.156Z,35
2016-04-28T04:33:53.126Z,35
2016-04-28T04:34:53.114Z,35
2016-04-28T04:35:53.069Z,35
2016-04-28T04:36:53.042Z,40
2016-04-28T04:37:53.028Z,45
2016-04-28T04:38:52.984Z,45
2016-04-28T04:39:52.956Z,45
2016-04-28T04:40:52.942Z,45
2016-04-28T04:41:52.633Z,45
2016-04-28T04:42:52.869Z,50
2016-04-28T04:43:52.856Z,50
2016-04-28T04:44:52.781Z,55
2016-04-28T04:45:52.769Z,55
2016-04-28T04:46:52.739Z,55
2016-04-28T04:47:52.711Z,55
2016-04-28T04:48:52.683Z,65
2016-04-28T04:49:52.638Z,65
2016-04-28T04:50:52.610Z,65
2016-04-28T04:51:52.613Z,65
2016-04-28T04:52:52.553Z,70
2016-04-28T04:53:52.524Z,65
2016-04-28T04:54:52.324Z,70
2016-04-28T04:55:52.468Z,70
2016-04-28T04:56:52.110Z,70
2016-04-28T04:57:52.394Z,70
2016-04-28T04:58:52.381Z,75
2016-04-28T04:59:52.338Z,75
2016-04-28T05:00:52.324Z,75
2016-04-28T05:01:52.280Z,75
2016-04-28T05:02:52.251Z,80
2016-04-28T05:03:52.207Z,80
2016-04-28T05:04:52.195Z,85
2016-04-28T05:05:52.181Z,85
2016-04-28T05:06:52.153Z,85
2016-04-28T05:07:52.093Z,85
2016-04-28T05:08:52.065Z,85
2016-04-28T05:09:52.051Z,90
2016-04-28T05:10:52.007Z,90
2016-04-28T05:11:52.181Z,90
2016-04-28T05:12:51.935Z,90
2016-04-28T05:13:51.906Z,95
2016-04-28T05:14:51.893Z,95
2016-04-28T05:15:51.850Z,95
2016-04-28T05:16:51.820Z,100
2016-04-28T05:17:51.792Z,100
2016-04-28T05:18:51.779Z,105
2016-04-28T05:19:51.736Z,105
2016-04-28T05:20:51.705Z,105
2016-04-28T05:21:51.663Z,110
2016-04-28T05:22:51.633Z,110
2016-04-28T05:23:51.620Z,110
2016-04-28T05:24:51.591Z,110
2016-04-28T05:25:51.549Z,115
2016-04-28T05:26:53.207Z,115
2016-04-28T05:27:51.506Z,115
2016-04-28T05:28:51.463Z,120
2016-04-28T05:29:51.324Z,120
2016-04-28T05:30:51.405Z,120
2016-04-28T05:31:51.376Z,120
2016-04-28T05:32:51.349Z,125
2016-04-28T05:33:51.319Z,125
2016-04-28T05:34:51.291Z,125
2016-04-28T05:35:51.262Z,130
2016-04-28T05:36:51.248Z,130
2016-04-28T05:37:51.205Z,130
2016-04-28T05:38:51.177Z,130
2016-04-28T05:39:51.117Z,130
2016-04-28T05:40:51.103Z,135
2016-04-28T05:41:52.466Z,135
2016-04-28T05:42:51.047Z,135
2016-04-28T05:43:51.034Z,135
2016-04-28T05:44:50.975Z,135
2016-04-28T05:45:50.945Z,140
2016-04-28T05:46:50.947Z,140
2016-04-28T05:47:50.904Z,145
2016-04-28T05:48:50.875Z,145
2016-04-28T05:49:50.847Z,150
2016-04-28T05:50:50.818Z,155
2016-04-28T05:51:50.775Z,160
2016-04-28T05:52:50.746Z,170
2016-04-28T05:53:50.561Z,175
2016-04-28T05:54:50.704Z,175
2016-04-28T05:55:50.660Z,165
2016-04-28T05:56:51.053Z,155
2016-04-28T05:57:50.587Z,155
2016-04-28T05:58:50.590Z,150
2016-04-28T05:59:50.546Z,145
2016-04-28T06:00:50.523Z,150
2016-04-28T06:01:50.551Z,155
2016-04-28T06:02:50.531Z,155
2016-04-28T06:03:50.559Z,155
2016-04-28T06:04:50.556Z,160
2016-04-28T06:05:50.564Z,155
2016-04-28T06:06:50.565Z,160
2016-04-28T06:07:50.552Z,160
2016-04-28T06:08:50.523Z,160
2016-04-28T06:09:50.508Z,160
2016-04-28T06:10:50.525Z,160
2016-04-28T06:11:50.954Z,160
2016-04-28T06:12:50.446Z,170
2016-04-28T06:13:50.422Z,185
2016-04-28T06:14:50.399Z,205
2016-04-28T06:15:50.390Z,210
2016-04-28T06:16:50.364Z,200
2016-04-28T06:17:50.336Z,190
2016-04-28T06:18:50.294Z,180
2016-04-28T06:19:50.315Z,170
2016-04-28T06:20:50.257Z,170
2016-04-28T06:21:50.214Z,165
2016-04-28T06:22:50.185Z,165
2016-04-28T06:23:50.157Z,165
2016-04-28T06:24:50.146Z,165
2016-04-28T06:25:50.118Z,165
2016-04-28T06:26:50.527Z,165
2016-04-28T06:27:50.187Z,165
2016-04-28T06:28:50.033Z,165
2016-04-28T06:29:50.005Z,170
2016-04-28T06:30:49.977Z,165
2016-04-28T06:31:49.932Z,165
2016-04-28T06:32:49.921Z,170
2016-04-28T06:33:49.891Z,170
2016-04-28T06:34:49.879Z,170
2016-04-28T06:35:49.850Z,170
2016-04-28T06:36:49.806Z,170
2016-04-28T06:37:49.761Z,170
2016-04-28T06:38:49.748Z,175
2016-04-28T06:39:49.735Z,175
2016-04-28T06:40:49.692Z,175
2016-04-28T06:41:49.600Z,175
2016-04-28T06:42:49.634Z,175
2016-04-28T06:43:49.606Z,175
2016-04-28T06:44:49.577Z,175
2016-04-28T06:45:49.533Z,175
2016-04-28T06:46:49.504Z,175
2016-04-28T06:47:49.492Z,180
2016-04-28T06:48:49.478Z,180
2016-04-28T06:49:49.434Z,180
2016-04-28T06:50:49.405Z,180
2016-04-28T06:51:49.378Z,185
2016-04-28T06:52:49.333Z,185
2016-04-28T06:53:49.320Z,185
2016-04-28T06:54:49.307Z,190
2016-04-28T06:55:49.263Z,190
2016-04-28T06:56:49.906Z,195
2016-04-28T06:57:49.112Z,195
2016-04-28T06:58:49.177Z,200
2016-04-28T06:59:49.148Z,205
2016-04-28T07:00:49.198Z,210
2016-04-28T07:01:49.108Z,220
2016-04-28T07:02:49.063Z,235
2016-04-28T07:03:49.049Z,250
2016-04-28T07:04:49.038Z,275
2016-04-28T07:05:48.993Z,285
2016-04-28T07:06:48.964Z,300
2016-04-28T07:07:48.935Z,315
2016-04-28T07:08:48.907Z,335
2016-04-28T07:09:48.878Z,355
2016-04-28T07:10:48.851Z,415
2016-04-28T07:11:48.228Z,400
2016-04-28T07:12:51.106Z,440
2016-04-28T07:13:48.765Z,625
2016-04-28T07:14:48.736Z,810
2016-04-28T07:15:48.707Z,640
2016-04-28T07:16:48.663Z,645
2016-04-28T07:17:48.650Z,635
2016-04-28T07:18:48.637Z,715
2016-04-28T07:19:48.608Z,570
2016-04-28T07:20:48.611Z,565
2016-04-28T07:21:48.552Z,660
2016-04-28T07:22:48.571Z,645
2016-04-28T07:23:48.527Z,1520
2016-04-28T07:24:48.498Z,1590
2016-04-28T07:25:48.485Z,1590
2016-04-28T07:26:48.332Z,1385
2016-04-28T07:27:49.569Z,715
2016-04-28T07:28:48.383Z,710
2016-04-28T07:29:48.386Z,610
2016-04-28T07:30:48.358Z,570
2016-04-28T07:31:48.330Z,650
2016-04-28T07:32:48.333Z,570
2016-04-28T07:33:48.336Z,530
2016-04-28T07:34:48.259Z,505
2016-04-28T07:35:48.262Z,510
2016-04-28T07:36:48.218Z,550
2016-04-28T07:37:48.189Z,595
2016-04-28T07:38:48.191Z,630
2016-04-28T07:39:48.163Z,595
2016-04-28T07:40:48.150Z,600
2016-04-28T07:41:48.138Z,615
2016-04-28T07:42:47.780Z,645
2016-04-28T07:43:48.065Z,625
2016-04-28T07:44:48.052Z,580
2016-04-28T07:45:48.024Z,585
2016-04-28T07:46:48.011Z,490
2016-04-28T07:47:48.263Z,415
2016-04-28T07:48:47.968Z,390
2016-04-28T07:49:47.940Z,410
2016-04-28T07:50:47.912Z,360
2016-04-28T07:51:47.898Z,350
2016-04-28T07:52:47.886Z,350
2016-04-28T07:53:47.889Z,355
2016-04-28T07:54:47.688Z,375
2016-04-28T07:55:47.707Z,380
2016-04-28T07:56:48.929Z,365
2016-04-28T07:57:52.915Z,370
2016-04-28T07:58:50.887Z,375
2016-04-28T07:59:47.576Z,385
2016-04-28T08:00:47.689Z,435
2016-04-28T08:01:47.676Z,555
2016-04-28T08:02:47.663Z,445
2016-04-28T08:03:47.650Z,400
2016-04-28T08:04:47.621Z,600
2016-04-28T08:05:47.561Z,895
2016-04-28T08:06:47.674Z,1300
2016-04-28T08:07:47.688Z,1260
2016-04-28T08:08:47.503Z,1330
2016-04-28T08:09:47.506Z,1425
2016-04-28T08:10:47.477Z,1520
2016-04-28T08:11:47.948Z,1155
2016-04-28T08:12:48.295Z,1250
2016-04-28T08:13:50.297Z,1165
2016-04-28T08:14:47.410Z,1375
2016-04-28T08:15:47.381Z,1130
2016-04-28T08:16:47.431Z,1410
2016-04-28T08:17:47.340Z,1415
2016-04-28T08:18:47.328Z,1445
2016-04-28T08:19:47.314Z,1460
2016-04-28T08:20:47.285Z,1595
2016-04-28T08:21:47.288Z,1520
2016-04-28T08:22:47.259Z,1750
2016-04-28T08:23:47.091Z,1705
2016-04-28T08:24:47.233Z,1125
2016-04-28T08:25:47.236Z,1130
2016-04-28T08:26:47.833Z,1635
2016-04-28T08:27:47.336Z,1665
2016-04-28T08:28:48.245Z,1710
2016-04-28T08:29:47.169Z,1790
2016-04-28T08:30:47.156Z,1420
2016-04-28T08:31:47.158Z,510
2016-04-28T08:32:47.130Z,1260
2016-04-28T08:33:47.118Z,1535
2016-04-28T08:34:47.104Z,1015
2016-04-28T08:35:47.091Z,1720
2016-04-28T08:36:47.110Z,1645
2016-04-28T08:37:47.081Z,1555
2016-04-28T08:38:47.068Z,925
2016-04-28T08:39:47.054Z,375
2016-04-28T08:40:47.043Z,295
2016-04-28T08:41:47.718Z,295
2016-04-28T08:42:50.626Z,315
2016-04-28T08:43:47.160Z,335
2016-04-28T08:44:46.990Z,355
2016-04-28T08:45:46.993Z,390
2016-04-28T08:46:46.949Z,400
2016-04-28T08:47:46.936Z,385
2016-04-28T08:48:46.939Z,350
2016-04-28T08:49:46.911Z,330
2016-04-28T08:50:46.898Z,300
2016-04-28T08:51:46.884Z,310
2016-04-28T08:52:46.887Z,370
2016-04-28T08:53:46.842Z,400
2016-04-28T08:54:46.814Z,330
2016-04-28T08:55:46.802Z,310
2016-04-28T08:56:46.992Z,300
2016-04-28T08:57:50.291Z,275
2016-04-28T08:58:46.638Z,290
2016-04-28T08:59:46.718Z,280
2016-04-28T09:00:46.721Z,295
2016-04-28T09:01:46.708Z,310
2016-04-28T09:02:46.680Z,320
2016-04-28T09:03:46.667Z,340
2016-04-28T09:04:46.654Z,355
2016-04-28T09:05:47.016Z,350
2016-04-28T09:06:46.613Z,335
2016-04-28T09:07:46.599Z,315
2016-04-28T09:08:46.571Z,285
2016-04-28T09:09:46.542Z,260
2016-04-28T09:10:46.529Z,250
2016-04-28T09:11:46.266Z,245
2016-04-28T09:12:50.910Z,235
2016-04-28T09:13:46.460Z,225
2016-04-28T09:14:46.446Z,240
2016-04-28T09:15:46.418Z,250
2016-04-28T09:16:46.404Z,245
2016-04-28T09:17:46.376Z,250
2016-04-28T09:18:46.348Z,260
2016-04-28T09:19:46.319Z,280
2016-04-28T09:20:46.306Z,275
2016-04-28T09:21:46.293Z,275
2016-04-28T09:22:46.249Z,275
2016-04-28T09:23:46.252Z,265
2016-04-28T09:24:46.270Z,280
2016-04-28T09:25:46.195Z,285
2016-04-28T09:26:46.181Z,305
2016-04-28T09:27:46.028Z,345
2016-04-28T09:28:46.140Z,380
2016-04-28T09:29:46.111Z,385
2016-04-28T09:30:46.082Z,425
2016-04-28T09:31:46.069Z,455
2016-04-28T09:32:46.042Z,425
2016-04-28T09:33:46.013Z,390
2016-04-28T09:34:45.984Z,370
2016-04-28T09:35:45.971Z,355
2016-04-28T09:36:45.943Z,365
2016-04-28T09:37:45.930Z,390
2016-04-28T09:38:45.917Z,420
2016-04-28T09:39:45.873Z,440
2016-04-28T09:40:45.875Z,410
2016-04-28T09:41:45.846Z,390
2016-04-28T09:42:48.319Z,380
2016-04-28T09:43:45.790Z,360
2016-04-28T09:44:45.777Z,320
2016-04-28T09:45:45.779Z,275
2016-04-28T09:46:45.735Z,265
2016-04-28T09:47:45.706Z,280
2016-04-28T09:48:45.678Z,320
2016-04-28T09:49:45.665Z,310
2016-04-28T09:50:45.653Z,310
2016-04-28T09:51:45.608Z,270
2016-04-28T09:52:45.783Z,270
2016-04-28T09:53:45.583Z,300
2016-04-28T09:54:45.553Z,375
2016-04-28T09:55:45.525Z,380
2016-04-28T09:56:45.355Z,355
2016-04-28T09:57:48.655Z,380
2016-04-28T09:58:45.439Z,355
2016-04-28T09:59:45.458Z,360
2016-04-28T10:00:45.430Z,285
2016-04-28T10:01:45.400Z,230
2016-04-28T10:02:46.700Z,200
2016-04-28T10:03:45.360Z,210
2016-04-28T10:04:45.330Z,240
2016-04-28T10:05:45.302Z,240
2016-04-28T10:06:45.305Z,245
2016-04-28T10:07:45.277Z,250
2016-04-28T10:08:45.249Z,265
2016-04-28T10:09:45.219Z,275
2016-04-28T10:10:45.191Z,245
2016-04-28T10:11:45.178Z,215
2016-04-28T10:12:46.070Z,200
2016-04-28T10:13:45.136Z,205
2016-04-28T10:14:45.108Z,265
2016-04-28T10:15:45.093Z,310
2016-04-28T10:16:45.048Z,305
2016-04-28T10:17:46.443Z,285
2016-04-28T10:18:45.022Z,280
2016-04-28T10:19:44.993Z,270
2016-04-28T10:20:44.948Z,285
2016-04-28T10:21:44.937Z,325
2016-04-28T10:22:44.986Z,355
2016-04-28T10:23:44.895Z,380
2016-04-28T10:24:44.866Z,420
2016-04-28T10:25:44.854Z,440
2016-04-28T10:26:44.856Z,435
2016-04-28T10:27:44.672Z,400
2016-04-28T10:28:44.783Z,350
2016-04-28T10:29:44.786Z,305
2016-04-28T10:30:44.726Z,270
2016-04-28T10:31:44.713Z,220
2016-04-28T10:32:44.700Z,190
2016-04-28T10:33:44.672Z,155
2016-04-28T10:34:44.658Z,135
2016-04-28T10:35:44.614Z,135
2016-04-28T10:36:44.602Z,135
2016-04-28T10:37:44.574Z,135
2016-04-28T10:38:44.545Z,145
2016-04-28T10:39:44.531Z,170
2016-04-28T10:40:44.518Z,195
2016-04-28T10:41:44.365Z,225
2016-04-28T10:42:47.508Z,260
2016-04-28T10:43:44.417Z,275
2016-04-28T10:44:44.420Z,285
2016-04-28T10:45:44.376Z,300
2016-04-28T10:46:44.363Z,300
2016-04-28T10:47:44.351Z,290
2016-04-28T10:48:44.321Z,280
2016-04-28T10:49:44.293Z,275
2016-04-28T10:50:44.280Z,265
2016-04-28T10:51:44.267Z,255
2016-04-28T10:52:44.223Z,245
2016-04-28T10:53:44.194Z,250
2016-04-28T10:54:44.197Z,250
2016-04-28T10:55:44.168Z,255
2016-04-28T10:56:44.109Z,260
2016-04-28T10:57:45.752Z,270
2016-04-28T10:58:44.083Z,305
2016-04-28T10:59:44.054Z,330
2016-04-28T11:00:44.025Z,380
2016-04-28T11:01:44.013Z,370
2016-04-28T11:02:43.984Z,365
2016-04-28T11:03:43.815Z,415
2016-04-28T11:04:43.958Z,395
2016-04-28T11:05:43.930Z,415
2016-04-28T11:06:43.885Z,415
2016-04-28T11:07:43.872Z,425
2016-04-28T11:08:43.844Z,445
2016-04-28T11:09:43.815Z,450
2016-04-28T11:10:43.818Z,445
2016-04-28T11:11:43.774Z,450
2016-04-28T11:12:43.308Z,475
2016-04-28T11:13:43.732Z,485
2016-04-28T11:14:43.704Z,495
2016-04-28T11:15:43.691Z,485
2016-04-28T11:16:43.662Z,475
2016-04-28T11:17:43.665Z,480
2016-04-28T11:18:43.637Z,485
2016-04-28T11:19:43.607Z,485
2016-04-28T11:20:43.573Z,495
2016-04-28T11:21:43.669Z,505
2016-04-28T11:22:43.532Z,520
2016-04-28T11:23:43.520Z,535
2016-04-28T11:24:43.506Z,525
2016-04-28T11:25:43.478Z,505
2016-04-28T11:26:43.449Z,460
2016-04-28T11:27:44.342Z,410
2016-04-28T11:28:43.408Z,370
2016-04-28T11:29:43.379Z,330
2016-04-28T11:30:43.350Z,285
2016-04-28T11:31:43.337Z,245
2016-04-28T11:32:43.325Z,215
2016-04-28T11:33:43.281Z,185
2016-04-28T11:34:43.252Z,165
2016-04-28T11:35:43.254Z,145
2016-04-28T11:36:43.226Z,130
2016-04-28T11:37:43.181Z,130
2016-04-28T11:38:43.168Z,150
2016-04-28T11:39:43.124Z,200
2016-04-28T11:40:43.127Z,240
2016-04-28T11:41:43.115Z,265
2016-04-28T11:42:45.632Z,280
2016-04-28T11:43:43.057Z,285
2016-04-28T11:44:43.029Z,290
2016-04-28T11:45:43.032Z,300
2016-04-28T11:46:42.596Z,320
2016-04-28T11:47:42.974Z,340
2016-04-28T11:48:42.946Z,350
2016-04-28T11:49:42.917Z,365
2016-04-28T11:50:42.889Z,380
2016-04-28T11:51:42.876Z,405
2016-04-28T11:52:42.848Z,435
2016-04-28T11:53:42.819Z,420
2016-04-28T11:54:42.805Z,375
2016-04-28T11:55:42.777Z,325
2016-04-28T11:56:42.811Z,290
2016-04-28T11:57:42.626Z,255
2016-04-28T11:58:42.723Z,240
2016-04-28T11:59:42.678Z,225
2016-04-28T12:00:42.666Z,220
2016-04-28T12:01:42.653Z,220
2016-04-28T12:02:42.639Z,220
2016-04-28T12:03:42.596Z,230
2016-04-28T12:04:42.691Z,235
2016-04-28T12:05:42.554Z,250
2016-04-28T12:06:42.510Z,255
2016-04-28T12:07:42.513Z,270
2016-04-28T12:08:42.484Z,280
2016-04-28T12:09:42.455Z,280
2016-04-28T12:10:42.317Z,275
2016-04-28T12:11:42.413Z,260
2016-04-28T12:12:44.229Z,245
2016-04-28T12:13:42.373Z,225
2016-04-28T12:14:42.343Z,210
2016-04-28T12:15:42.315Z,205
2016-04-28T12:16:42.302Z,210
2016-04-28T12:17:42.290Z,220
2016-04-28T12:18:42.245Z,235
2016-04-28T12:19:42.248Z,255
2016-04-28T12:20:42.204Z,275
2016-04-28T12:21:42.191Z,295
2016-04-28T12:22:42.162Z,310
2016-04-28T12:23:42.150Z,310
2016-04-28T12:24:42.105Z,300
2016-04-28T12:25:42.092Z,285
2016-04-28T12:26:42.078Z,275
2016-04-28T12:27:42.816Z,275
2016-04-28T12:28:42.038Z,270
2016-04-28T12:29:42.009Z,275
2016-04-28T12:30:41.981Z,275
2016-04-28T12:31:41.967Z,275
2016-04-28T12:32:41.939Z,275
2016-04-28T12:33:41.927Z,255
2016-04-28T12:34:41.914Z,245
2016-04-28T12:35:41.868Z,235
2016-04-28T12:36:41.871Z,225
2016-04-28T12:37:41.843Z,220
2016-04-28T12:38:41.799Z,215
2016-04-28T12:39:41.786Z,220
2016-04-28T12:40:41.821Z,210
2016-04-28T12:41:41.744Z,210
2016-04-28T12:42:41.513Z,205
2016-04-28T12:43:41.704Z,200
2016-04-28T12:44:41.769Z,230
2016-04-28T12:45:41.739Z,235
2016-04-28T12:46:41.476Z,240
2016-04-28T12:47:41.604Z,230
2016-04-28T12:48:41.576Z,220
2016-04-28T12:49:41.562Z,240
2016-04-28T12:50:41.534Z,270
2016-04-28T12:51:41.521Z,275
2016-04-28T12:52:41.540Z,285
2016-04-28T12:53:41.464Z,290
2016-04-28T12:54:41.451Z,275
2016-04-28T12:55:41.423Z,255
2016-04-28T12:56:41.472Z,225
2016-04-28T12:57:44.162Z,195
2016-04-28T12:58:41.196Z,165
2016-04-28T12:59:41.324Z,155
2016-04-28T13:00:41.295Z,155
2016-04-28T13:01:41.283Z,165
2016-04-28T13:02:41.270Z,160
2016-04-28T13:03:41.241Z,155
2016-04-28T13:04:41.385Z,140
2016-04-28T13:05:41.294Z,135
2016-04-28T13:06:40.608Z,135
2016-04-28T13:07:43.893Z,140
2016-04-28T13:08:41.130Z,165
2016-04-28T13:09:41.102Z,200
2016-04-28T13:10:41.088Z,205
2016-04-28T13:11:41.044Z,210
2016-04-28T13:12:40.594Z,215
2016-04-28T13:13:41.002Z,220
2016-04-28T13:14:40.990Z,220
2016-04-28T13:15:40.960Z,200
2016-04-28T13:16:40.948Z,180
2016-04-28T13:17:40.951Z,185
2016-04-28T13:18:40.891Z,215
2016-04-28T13:19:40.721Z,230
2016-04-28T13:20:40.849Z,225
2016-04-28T13:21:40.820Z,245
2016-04-28T13:22:40.902Z,280
2016-04-28T13:23:40.779Z,330
2016-04-28T13:24:40.767Z,345
2016-04-28T13:25:40.737Z,335
2016-04-28T13:26:40.709Z,315
2016-04-28T13:27:41.368Z,300
2016-04-28T13:28:40.683Z,280
2016-04-28T13:29:40.796Z,230
2016-04-28T13:30:40.736Z,205
2016-04-28T13:31:40.598Z,180
2016-04-28T13:32:40.569Z,175
2016-04-28T13:33:40.556Z,180
2016-04-28T13:34:40.621Z,185
2016-04-28T13:35:40.515Z,180
2016-04-28T13:36:40.486Z,185
2016-04-28T13:37:40.474Z,190
2016-04-28T13:38:40.444Z,205
2016-04-28T13:39:40.416Z,220
2016-04-28T13:40:40.388Z,215
2016-04-28T13:41:40.469Z,240
2016-04-28T13:42:41.455Z,295
2016-04-28T13:43:40.661Z,335
2016-04-28T13:44:40.304Z,335
2016-04-28T13:45:40.291Z,285
2016-04-28T13:46:40.326Z,235
2016-04-28T13:47:40.251Z,190
2016-04-28T13:48:40.221Z,160
2016-04-28T13:49:40.209Z,145
2016-04-28T13:50:40.179Z,150
2016-04-28T13:51:40.167Z,160
2016-04-28T13:52:40.185Z,160
2016-04-28T13:53:40.109Z,125
2016-04-28T13:54:40.098Z,120
2016-04-28T13:55:40.053Z,125
2016-04-28T13:56:40.040Z,125
2016-04-28T13:57:42.652Z,125
2016-04-28T13:58:41.656Z,125
2016-04-28T13:59:39.986Z,135
2016-04-28T14:00:39.973Z,145
2016-04-28T14:01:39.929Z,150
2016-04-28T14:02:40.008Z,150
2016-04-28T14:03:39.964Z,140